Time;durP1;ratioP1;P1;durP2;ratioP2;P2;SDS_P1;SDS_P2;PMS_P1;PMS_P2;Temp;Humidity;BMP_temperature;BMP_pressure;BME280_temperature;BME280_humidity;BME280_pressure;Samples;Min_cycle;Max_cycle;Signal;HPM_P1;HPM_P2
2023/08/30 00:00:10;;;;;;;14.70;10.60;;;11.90;99.90;;;;;;5044323;28;20197;-60
2023/08/30 00:02:36;;;;;;;17.83;11.43;;;11.90;99.90;;;;;;5039393;28;20203;-60
2023/08/30 00:05:03;;;;;;;15.87;10.80;;;11.90;99.90;;;;;;5043689;28;20410;-61
2023/08/30 00:07:29;;;;;;;17.43;11.40;;;11.90;99.90;;;;;;5049315;28;20514;-60
2023/08/30 00:09:56;;;;;;;16.43;11.60;;;11.90;99.90;;;;;;5048735;28;20480;-60
2023/08/30 00:12:22;;;;;;;14.33;10.30;;;11.90;99.90;;;;;;5047361;28;20502;-60
2023/08/30 00:14:47;;;;;;;16.67;10.53;;;11.90;99.90;;;;;;5048541;28;20452;-60
2023/08/30 00:17:14;;;;;;;16.50;11.93;;;11.90;99.90;;;;;;5046178;28;20555;-60
2023/08/30 00:19:40;;;;;;;14.80;11.27;;;11.90;99.90;;;;;;5039016;28;20180;-60
2023/08/30 00:22:07;;;;;;;17.30;11.77;;;11.90;99.90;;;;;;5043355;28;20429;-60
2023/08/30 00:24:33;;;;;;;18.40;11.57;;;11.90;99.90;;;;;;5043033;28;20219;-60
2023/08/30 00:26:59;;;;;;;17.40;12.53;;;11.90;99.90;;;;;;5044149;28;20429;-61
2023/08/30 00:29:25;;;;;;;17.20;11.30;;;11.90;99.90;;;;;;5050068;28;20425;-60
2023/08/30 00:31:50;;;;;;;14.77;10.67;;;11.90;99.90;;;;;;5043063;28;21229;-60
2023/08/30 00:34:16;;;;;;;15.97;10.73;;;11.90;99.90;;;;;;5046616;28;20515;-60
2023/08/30 00:36:41;;;;;;;13.73;11.13;;;11.90;99.90;;;;;;5041039;28;20236;-60
2023/08/30 00:39:08;;;;;;;15.43;10.73;;;11.90;99.90;;;;;;5045799;28;20186;-60
2023/08/30 00:41:34;;;;;;;18.90;10.70;;;11.90;99.90;;;;;;5047606;28;20203;-60
2023/08/30 00:44:00;;;;;;;16.53;11.23;;;11.90;99.90;;;;;;5045738;28;20508;-60
2023/08/30 00:46:26;;;;;;;14.80;11.40;;;11.90;99.90;;;;;;5047325;28;20505;-59
2023/08/30 00:48:52;;;;;;;18.70;11.60;;;11.90;99.90;;;;;;5039955;28;20179;-60
2023/08/30 00:51:18;;;;;;;18.07;10.87;;;11.80;99.90;;;;;;5037185;28;20415;-60
2023/08/30 00:53:44;;;;;;;15.50;11.17;;;11.80;99.90;;;;;;5039290;28;20179;-59
2023/08/30 00:56:10;;;;;;;17.27;12.30;;;11.80;99.90;;;;;;5038024;28;20690;-60
2023/08/30 00:58:37;;;;;;;17.07;12.53;;;11.80;99.90;;;;;;5044347;28;20418;-59
2023/08/30 01:01:07;;;;;;;14.50;10.13;;;11.80;99.90;;;;;;5049016;28;20725;-60
2023/08/30 01:03:32;;;;;;;14.50;10.63;;;11.80;99.90;;;;;;5046473;28;20453;-61
2023/08/30 01:05:58;;;;;;;25.07;16.67;;;11.70;99.90;;;;;;5046367;28;20501;-60
2023/08/30 01:08:24;;;;;;;18.67;13.80;;;11.70;99.90;;;;;;5041804;28;20270;-60
2023/08/30 01:11:13;;;;;;;16.60;11.40;;;11.70;99.90;;;;;;5048170;28;20623;-60
2023/08/30 01:13:47;;;;;;;14.47;10.60;;;11.70;99.90;;;;;;5046588;28;20179;-60
2023/08/30 01:16:13;;;;;;;16.70;10.70;;;11.70;99.90;;;;;;5048443;28;20517;-59
2023/08/30 01:18:39;;;;;;;14.90;11.23;;;11.70;99.90;;;;;;5049097;28;20413;-59
2023/08/30 01:21:11;;;;;;;17.50;10.17;;;11.70;99.90;;;;;;5043682;28;20477;-59
2023/08/30 01:23:49;;;;;;;17.70;10.97;;;11.70;99.90;;;;;;5044539;28;20575;-59
2023/08/30 01:26:36;;;;;;;17.80;11.10;;;11.70;99.90;;;;;;5048956;28;20433;-59
2023/08/30 01:29:04;;;;;;;19.07;11.17;;;11.70;99.90;;;;;;5045283;28;20453;-59
2023/08/30 01:31:33;;;;;;;16.33;10.73;;;11.70;99.90;;;;;;5045147;28;20453;-60
2023/08/30 01:34:00;;;;;;;16.20;11.23;;;11.70;99.90;;;;;;5048797;28;20463;-60
2023/08/30 01:36:27;;;;;;;14.60;10.37;;;11.70;99.90;;;;;;5044315;28;20429;-60
2023/08/30 01:38:53;;;;;;;13.80;10.40;;;11.70;99.90;;;;;;5046072;28;20712;-60
2023/08/30 01:41:20;;;;;;;16.60;11.17;;;11.70;99.90;;;;;;5041181;28;20461;-59
2023/08/30 01:43:47;;;;;;;15.23;10.57;;;11.70;99.90;;;;;;5048353;28;20938;-59
2023/08/30 01:46:13;;;;;;;16.97;11.33;;;11.70;99.90;;;;;;5040750;28;20452;-60
2023/08/30 01:48:40;;;;;;;17.17;11.50;;;11.70;99.90;;;;;;5042039;28;20442;-60
2023/08/30 01:51:07;;;;;;;12.37;9.77;;;11.70;99.90;;;;;;5038701;28;20430;-59
2023/08/30 01:53:35;;;;;;;16.07;11.63;;;11.70;99.90;;;;;;5036360;28;20542;-60
2023/08/30 01:56:01;;;;;;;15.47;11.23;;;11.70;99.90;;;;;;5035353;28;20441;-60
2023/08/30 01:58:26;;;;;;;15.07;10.87;;;11.70;99.90;;;;;;5048099;28;20422;-60
2023/08/30 02:00:53;;;;;;;15.33;11.73;;;11.70;99.90;;;;;;5045227;28;20242;-59
2023/08/30 02:03:18;;;;;;;18.10;11.17;;;11.70;99.90;;;;;;5048864;28;20187;-59
2023/08/30 02:06:01;;;;;;;15.97;11.60;;;11.70;99.90;;;;;;5042400;28;20448;-59
2023/08/30 02:08:36;;;;;;;14.03;10.90;;;11.70;99.90;;;;;;5046759;28;20171;-60
2023/08/30 02:11:07;;;;;;;15.77;11.20;;;11.70;99.90;;;;;;5041120;28;20438;-59
2023/08/30 02:13:34;;;;;;;16.20;9.87;;;11.70;99.90;;;;;;5037129;28;20494;-59
2023/08/30 02:16:01;;;;;;;16.07;11.03;;;11.70;99.90;;;;;;5047255;28;20461;-60
2023/08/30 02:18:28;;;;;;;16.57;11.57;;;11.70;99.90;;;;;;5047072;28;20414;-59
2023/08/30 02:20:55;;;;;;;13.00;9.93;;;11.70;99.90;;;;;;5048211;28;20557;-60
2023/08/30 02:23:24;;;;;;;13.13;10.43;;;11.70;99.90;;;;;;5045149;28;20450;-59
2023/08/30 02:25:50;;;;;;;13.40;9.87;;;11.70;99.90;;;;;;5040539;28;20463;-60
2023/08/30 02:28:15;;;;;;;13.10;9.20;;;11.60;99.90;;;;;;5054538;28;20826;-59
2023/08/30 02:30:41;;;;;;;13.27;9.90;;;11.60;99.90;;;;;;5051428;28;20183;-59
2023/08/30 02:33:07;;;;;;;11.90;9.47;;;11.60;99.90;;;;;;5050253;28;20195;-60
2023/08/30 02:35:32;;;;;;;11.80;9.00;;;11.60;99.90;;;;;;5047026;28;20198;-60
2023/08/30 02:37:58;;;;;;;12.03;9.10;;;11.60;99.90;;;;;;5048634;28;20183;-59
2023/08/30 02:40:23;;;;;;;12.13;9.07;;;11.60;99.90;;;;;;5050825;28;20668;-59
2023/08/30 02:42:49;;;;;;;12.63;9.17;;;11.60;99.90;;;;;;5044178;28;20203;-60
2023/08/30 02:45:14;;;;;;;12.90;9.83;;;11.60;99.90;;;;;;5049400;28;20598;-60
2023/08/30 02:47:40;;;;;;;12.37;9.33;;;11.60;99.90;;;;;;5036428;28;20180;-59
2023/08/30 02:50:06;;;;;;;14.10;9.60;;;11.60;99.90;;;;;;5031820;28;20179;-58
2023/08/30 02:52:31;;;;;;;11.70;9.07;;;11.60;99.90;;;;;;5039427;28;20210;-59
2023/08/30 02:54:57;;;;;;;13.17;8.87;;;11.60;99.90;;;;;;5042435;28;20633;-59
2023/08/30 02:57:22;;;;;;;11.50;9.37;;;11.50;99.90;;;;;;5050808;28;20183;-59
2023/08/30 02:59:48;;;;;;;12.80;8.83;;;11.50;99.90;;;;;;5051001;28;20190;-59
2023/08/30 03:02:14;;;;;;;10.07;8.40;;;11.50;99.90;;;;;;5043561;28;20214;-59
2023/08/30 03:04:39;;;;;;;10.57;8.50;;;11.50;99.90;;;;;;5045033;28;20179;-59
2023/08/30 03:07:05;;;;;;;11.03;8.70;;;11.50;99.90;;;;;;5051748;28;20229;-58
2023/08/30 03:09:30;;;;;;;10.50;8.43;;;11.40;99.90;;;;;;5043810;28;20176;-58
2023/08/30 03:11:56;;;;;;;11.43;8.83;;;11.40;99.90;;;;;;5051430;28;20195;-59
2023/08/30 03:14:22;;;;;;;13.03;9.13;;;11.40;99.90;;;;;;5045246;28;20200;-59
2023/08/30 03:16:47;;;;;;;11.83;9.20;;;11.40;99.90;;;;;;5048295;28;20179;-59
2023/08/30 03:19:13;;;;;;;15.40;8.60;;;11.40;99.90;;;;;;5048514;28;20870;-59
2023/08/30 03:21:39;;;;;;;13.33;8.60;;;11.40;99.90;;;;;;5044480;28;20206;-59
2023/08/30 03:24:05;;;;;;;12.80;9.10;;;11.40;99.90;;;;;;5048364;28;20217;-58
2023/08/30 03:26:30;;;;;;;12.30;8.73;;;11.40;99.90;;;;;;5043983;28;20779;-59
2023/08/30 03:28:56;;;;;;;12.53;9.23;;;11.40;99.90;;;;;;5049183;28;20183;-60
2023/08/30 03:31:22;;;;;;;13.40;9.80;;;11.40;99.90;;;;;;5050520;28;20175;-60
2023/08/30 03:33:49;;;;;;;13.03;9.70;;;11.40;99.90;;;;;;5050702;28;20244;-60
2023/08/30 03:36:16;;;;;;;13.00;9.47;;;11.40;99.90;;;;;;5052944;28;20256;-60
2023/08/30 03:38:43;;;;;;;11.97;9.13;;;11.40;99.90;;;;;;5044416;28;20439;-60
2023/08/30 03:41:10;;;;;;;13.07;10.07;;;11.40;99.90;;;;;;5045517;28;20461;-61
2023/08/30 03:43:36;;;;;;;11.93;9.20;;;11.40;99.90;;;;;;5048459;28;20434;-60
2023/08/30 03:46:02;;;;;;;12.80;9.30;;;11.40;99.90;;;;;;5046031;28;20436;-60
2023/08/30 03:48:29;;;;;;;13.07;9.40;;;11.40;99.90;;;;;;5047087;28;20640;-60
2023/08/30 03:50:55;;;;;;;14.30;10.13;;;11.30;99.90;;;;;;5042414;28;20463;-60
2023/08/30 03:53:21;;;;;;;15.57;10.17;;;11.30;99.90;;;;;;5046320;28;20456;-59
2023/08/30 03:55:47;;;;;;;16.23;10.50;;;11.30;99.90;;;;;;5040219;28;20463;-60
2023/08/30 03:58:12;;;;;;;16.00;9.53;;;11.30;99.90;;;;;;5047759;28;20179;-60
2023/08/30 04:00:39;;;;;;;14.20;10.20;;;11.30;99.90;;;;;;5046526;28;20253;-60
2023/08/30 04:03:08;;;;;;;14.07;9.67;;;11.30;99.90;;;;;;5050283;28;20218;-60
2023/08/30 04:05:34;;;;;;;14.47;9.83;;;11.30;99.90;;;;;;5045715;28;20436;-60
2023/08/30 04:08:02;;;;;;;14.23;9.83;;;11.30;99.90;;;;;;5042110;28;20439;-60
2023/08/30 04:10:27;;;;;;;12.87;9.93;;;11.30;99.90;;;;;;5048702;28;20421;-59
2023/08/30 04:12:53;;;;;;;13.97;10.63;;;11.30;99.90;;;;;;5050406;28;20437;-60
2023/08/30 04:15:19;;;;;;;13.90;10.17;;;11.30;99.90;;;;;;5046233;28;20190;-59
2023/08/30 04:17:44;;;;;;;17.40;12.17;;;11.30;99.90;;;;;;5043596;28;20210;-60
2023/08/30 04:20:10;;;;;;;18.40;11.60;;;11.30;99.90;;;;;;5049828;28;20707;-60
2023/08/30 04:22:36;;;;;;;15.13;10.13;;;11.30;99.90;;;;;;5049778;28;20199;-59
2023/08/30 04:25:03;;;;;;;14.63;11.40;;;11.30;99.90;;;;;;5044915;28;20176;-59
2023/08/30 04:27:29;;;;;;;15.97;10.60;;;11.30;99.90;;;;;;5045458;28;20175;-61
2023/08/30 04:29:54;;;;;;;15.13;10.57;;;11.40;99.90;;;;;;5044339;28;20424;-60
2023/08/30 04:32:20;;;;;;;14.73;10.23;;;11.40;99.90;;;;;;5045289;28;20321;-60
2023/08/30 04:34:45;;;;;;;16.97;11.80;;;11.40;99.90;;;;;;5047232;28;20248;-60
2023/08/30 04:37:11;;;;;;;17.60;12.40;;;11.40;99.90;;;;;;5048608;28;20201;-60
2023/08/30 04:39:36;;;;;;;18.07;12.00;;;11.40;99.90;;;;;;5042748;28;20221;-59
2023/08/30 04:42:03;;;;;;;18.43;12.07;;;11.40;99.90;;;;;;5035131;28;20684;-59
2023/08/30 04:44:29;;;;;;;18.27;11.67;;;11.40;99.90;;;;;;5044340;28;20174;-59
2023/08/30 04:46:54;;;;;;;16.20;10.20;;;11.40;99.90;;;;;;5046866;28;20430;-60
2023/08/30 04:49:21;;;;;;;15.40;10.87;;;11.40;99.90;;;;;;5040396;28;20458;-60
2023/08/30 04:51:46;;;;;;;16.30;12.40;;;11.40;99.90;;;;;;5049412;28;20195;-60
2023/08/30 04:54:12;;;;;;;18.17;11.80;;;11.40;99.90;;;;;;5042046;28;20794;-60
2023/08/30 04:56:38;;;;;;;18.23;11.23;;;11.40;99.90;;;;;;5047386;28;20430;-60
2023/08/30 04:59:04;;;;;;;16.17;11.40;;;11.40;99.90;;;;;;5047833;28;20836;-60
2023/08/30 05:01:32;;;;;;;15.70;10.93;;;11.40;99.90;;;;;;5043866;28;20203;-60
2023/08/30 05:03:57;;;;;;;19.20;11.77;;;11.40;99.90;;;;;;5060426;28;20248;-60
2023/08/30 05:06:23;;;;;;;16.37;12.60;;;11.40;99.90;;;;;;5047084;28;20866;-59
2023/08/30 05:08:49;;;;;;;19.63;12.37;;;11.40;99.90;;;;;;5043327;28;20179;-60
2023/08/30 05:11:15;;;;;;;17.53;12.40;;;11.40;99.90;;;;;;5049103;28;20647;-60
2023/08/30 05:13:41;;;;;;;17.63;12.13;;;11.40;99.90;;;;;;5043640;28;20656;-60
2023/08/30 05:16:06;;;;;;;17.53;11.37;;;11.30;99.90;;;;;;5046203;28;20508;-61
2023/08/30 05:18:32;;;;;;;15.60;10.80;;;11.30;99.90;;;;;;5045064;28;20179;-60
2023/08/30 05:20:57;;;;;;;17.53;11.00;;;11.30;99.90;;;;;;5047321;28;20195;-60
2023/08/30 05:23:23;;;;;;;16.20;10.83;;;11.30;99.90;;;;;;5044422;28;20562;-60
2023/08/30 05:25:49;;;;;;;18.30;12.17;;;11.30;99.90;;;;;;5048944;28;20179;-60
2023/08/30 05:28:14;;;;;;;21.60;11.47;;;11.30;99.90;;;;;;5047426;28;20177;-60
2023/08/30 05:30:43;;;;;;;18.37;10.93;;;11.30;99.90;;;;;;5044437;28;20258;-60
2023/08/30 05:33:08;;;;;;;15.10;10.77;;;11.30;99.90;;;;;;5046569;28;20282;-60
2023/08/30 05:35:34;;;;;;;16.37;10.50;;;11.30;99.90;;;;;;5040819;28;21058;-60
2023/08/30 05:37:59;;;;;;;15.93;10.80;;;11.30;99.90;;;;;;5042847;28;20178;-60
2023/08/30 05:40:25;;;;;;;16.97;11.37;;;11.30;99.90;;;;;;5047063;28;20221;-60
2023/08/30 05:42:51;;;;;;;15.10;10.20;;;11.30;99.90;;;;;;5048025;28;20195;-60
2023/08/30 05:45:16;;;;;;;16.67;11.33;;;11.30;99.90;;;;;;5041927;28;20678;-59
2023/08/30 05:47:42;;;;;;;19.60;11.80;;;11.30;99.90;;;;;;5043489;28;20301;-60
2023/08/30 05:50:08;;;;;;;13.13;9.67;;;11.30;99.90;;;;;;5030935;28;20187;-60
2023/08/30 05:52:34;;;;;;;16.33;10.13;;;11.30;99.90;;;;;;5045482;28;20261;-60
2023/08/30 05:54:59;;;;;;;15.67;10.50;;;11.40;99.90;;;;;;5043103;28;20860;-60
2023/08/30 05:57:26;;;;;;;16.20;10.47;;;11.40;99.90;;;;;;5044546;28;20210;-59
2023/08/30 05:59:52;;;;;;;17.23;10.33;;;11.40;99.90;;;;;;5048296;28;20233;-60
2023/08/30 06:02:17;;;;;;;17.93;10.60;;;11.40;99.90;;;;;;5046040;28;20994;-60
2023/08/30 06:04:43;;;;;;;17.47;10.87;;;11.40;99.90;;;;;;5044267;28;20179;-59
2023/08/30 06:07:09;;;;;;;17.60;9.93;;;11.30;99.90;;;;;;5052611;28;20201;-60
2023/08/30 06:09:34;;;;;;;15.87;9.30;;;11.30;99.90;;;;;;5047167;28;20168;-61
2023/08/30 06:12:00;;;;;;;13.90;9.97;;;11.30;99.90;;;;;;5049873;28;20332;-59
2023/08/30 06:14:25;;;;;;;11.93;9.70;;;11.30;99.90;;;;;;5045731;28;20724;-62
2023/08/30 06:16:51;;;;;;;15.13;9.47;;;11.30;99.90;;;;;;5052763;28;20190;-60
2023/08/30 06:19:17;;;;;;;16.40;8.90;;;11.30;99.90;;;;;;5048653;28;20230;-60
2023/08/30 06:21:42;;;;;;;17.30;10.23;;;11.40;99.90;;;;;;5050039;28;20736;-60
2023/08/30 06:24:08;;;;;;;14.27;9.83;;;11.40;99.90;;;;;;5048834;28;20182;-60
2023/08/30 06:26:33;;;;;;;18.97;10.87;;;11.40;99.90;;;;;;5048312;28;20702;-60
2023/08/30 06:28:59;;;;;;;15.03;9.30;;;11.50;99.90;;;;;;5042343;28;20291;-60
2023/08/30 06:31:26;;;;;;;17.37;10.20;;;11.50;99.90;;;;;;5051219;28;20191;-60
2023/08/30 06:33:51;;;;;;;15.67;9.60;;;11.50;99.90;;;;;;5046402;28;20766;-60
2023/08/30 06:36:18;;;;;;;15.80;10.07;;;11.60;99.90;;;;;;5049299;28;20436;-60
2023/08/30 06:38:43;;;;;;;13.53;9.37;;;11.60;99.90;;;;;;5045802;28;20195;-60
2023/08/30 06:41:09;;;;;;;15.00;10.53;;;11.60;99.90;;;;;;5043838;28;20461;-60
2023/08/30 06:43:35;;;;;;;16.20;9.73;;;11.60;99.90;;;;;;5047635;28;20618;-60
2023/08/30 06:46:00;;;;;;;13.67;9.50;;;11.50;99.90;;;;;;5046437;28;20225;-60
2023/08/30 06:48:26;;;;;;;15.50;10.67;;;11.50;99.90;;;;;;5040287;28;20181;-60
2023/08/30 06:50:52;;;;;;;15.90;10.37;;;11.40;99.90;;;;;;5040857;28;20191;-60
2023/08/30 06:53:17;;;;;;;15.57;9.37;;;11.40;99.90;;;;;;5040075;28;20235;-60
2023/08/30 06:55:43;;;;;;;13.20;9.30;;;11.30;99.90;;;;;;5043926;28;20188;-60
2023/08/30 06:58:08;;;;;;;15.63;10.33;;;11.30;99.90;;;;;;5048953;28;20220;-60
2023/08/30 07:00:34;;;;;;;11.93;8.30;;;11.30;99.90;;;;;;5047064;28;20219;-59
2023/08/30 07:03:00;;;;;;;14.63;10.83;;;11.40;99.90;;;;;;5047383;28;20195;-60
2023/08/30 07:05:25;;;;;;;14.77;8.90;;;11.40;99.90;;;;;;5043210;28;20267;-61
2023/08/30 07:07:51;;;;;;;11.87;8.20;;;11.40;99.90;;;;;;5051723;28;20183;-59
2023/08/30 07:10:17;;;;;;;12.73;8.30;;;11.40;99.90;;;;;;5046490;28;20184;-60
2023/08/30 07:12:42;;;;;;;12.00;8.77;;;11.40;99.90;;;;;;5047873;28;20206;-60
2023/08/30 07:15:08;;;;;;;14.40;9.03;;;11.40;99.90;;;;;;5046897;28;20178;-60
2023/08/30 07:17:34;;;;;;;10.80;8.07;;;11.50;99.90;;;;;;5052064;28;20179;-60
2023/08/30 07:20:00;;;;;;;13.10;9.03;;;11.60;99.90;;;;;;5047330;28;20545;-60
2023/08/30 07:22:26;;;;;;;12.77;8.77;;;11.60;99.90;;;;;;5046088;28;20210;-60
2023/08/30 07:24:52;;;;;;;12.70;8.30;;;11.70;99.90;;;;;;5050400;28;20433;-60
2023/08/30 07:27:17;;;;;;;13.50;9.80;;;11.80;99.90;;;;;;5051262;28;20723;-60
2023/08/30 07:29:43;;;;;;;12.70;9.43;;;11.90;99.90;;;;;;5043059;28;20184;-60
2023/08/30 07:32:09;;;;;;;14.20;10.63;;;12.00;99.90;;;;;;5047883;28;20278;-60
2023/08/30 07:34:35;;;;;;;13.50;9.37;;;12.00;99.90;;;;;;5050477;28;20187;-59
2023/08/30 07:37:01;;;;;;;13.80;10.27;;;12.10;99.90;;;;;;5046225;28;20187;-60
2023/08/30 07:39:27;;;;;;;15.87;9.73;;;12.10;99.90;;;;;;5044437;28;20301;-59
2023/08/30 07:41:53;;;;;;;13.83;10.30;;;12.20;99.90;;;;;;5046306;28;20552;-59
2023/08/30 07:44:20;;;;;;;13.30;8.97;;;12.30;99.90;;;;;;5050609;28;20176;-60
2023/08/30 07:46:45;;;;;;;13.70;10.10;;;12.30;99.90;;;;;;5044487;28;20287;-59
2023/08/30 07:49:11;;;;;;;12.30;8.87;;;12.40;99.90;;;;;;5043086;28;20552;-60
2023/08/30 07:51:37;;;;;;;11.07;8.70;;;12.40;99.90;;;;;;5041549;28;20203;-60
2023/08/30 07:54:03;;;;;;;12.70;9.70;;;12.50;99.90;;;;;;5041518;28;20322;-61
2023/08/30 07:56:29;;;;;;;10.93;8.83;;;12.60;99.90;;;;;;5046722;28;20198;-60
2023/08/30 07:58:54;;;;;;;13.50;9.70;;;12.70;99.90;;;;;;5047784;28;20217;-59
2023/08/30 08:01:20;;;;;;;13.57;10.33;;;12.80;99.90;;;;;;5046733;28;20210;-60
2023/08/30 08:03:46;;;;;;;13.17;9.23;;;13.00;99.90;;;;;;5044813;28;20674;-60
2023/08/30 08:06:12;;;;;;;11.47;8.50;;;13.10;99.90;;;;;;5043819;28;20171;-60
2023/08/30 08:08:38;;;;;;;10.60;7.90;;;13.10;99.90;;;;;;5042300;28;20438;-60
2023/08/30 08:11:03;;;;;;;10.60;8.40;;;13.10;99.90;;;;;;5046912;28;20191;-60
2023/08/30 08:13:29;;;;;;;11.40;8.80;;;13.20;99.90;;;;;;5049558;28;20199;-60
2023/08/30 08:15:58;;;;;;;10.07;7.70;;;13.20;99.90;;;;;;5047458;28;20175;-60
2023/08/30 08:18:23;;;;;;;10.97;8.23;;;13.20;99.90;;;;;;5046059;28;20191;-60
2023/08/30 08:20:50;;;;;;;11.90;8.07;;;13.20;99.90;;;;;;5045722;28;20548;-60
2023/08/30 08:23:16;;;;;;;12.27;8.80;;;13.20;99.90;;;;;;5040229;28;20211;-60
2023/08/30 08:25:41;;;;;;;12.57;8.40;;;13.20;99.90;;;;;;5049840;28;20450;-60
2023/08/30 08:28:07;;;;;;;12.10;8.40;;;13.20;99.90;;;;;;5047692;28;20184;-60
2023/08/30 08:30:32;;;;;;;12.73;9.07;;;13.20;99.90;;;;;;5044187;28;20544;-60
2023/08/30 08:32:58;;;;;;;16.00;8.27;;;13.30;99.90;;;;;;5049971;28;20207;-60
2023/08/30 08:35:24;;;;;;;11.67;7.47;;;13.30;99.90;;;;;;5049793;28;20182;-61
2023/08/30 08:37:50;;;;;;;9.53;7.47;;;13.30;99.90;;;;;;5042564;28;20464;-60
2023/08/30 08:40:16;;;;;;;11.83;7.77;;;13.30;99.90;;;;;;5044202;28;20286;-60
2023/08/30 08:42:43;;;;;;;9.50;7.83;;;13.30;99.90;;;;;;5049089;28;20533;-60
2023/08/30 08:45:11;;;;;;;12.70;7.67;;;13.30;99.90;;;;;;5049638;28;20597;-60
2023/08/30 08:47:38;;;;;;;10.63;7.77;;;13.30;99.90;;;;;;5043368;28;20818;-61
2023/08/30 08:50:04;;;;;;;7.33;6.53;;;13.40;99.90;;;;;;5037884;28;20414;-60
2023/08/30 08:52:30;;;;;;;12.07;7.20;;;13.40;99.90;;;;;;5035884;28;20449;-60
2023/08/30 08:54:59;;;;;;;11.40;7.73;;;13.40;99.90;;;;;;5045182;28;20440;-60
2023/08/30 08:57:26;;;;;;;11.03;8.23;;;13.40;99.90;;;;;;5033003;28;20438;-61
2023/08/30 08:59:51;;;;;;;12.03;7.90;;;13.30;99.90;;;;;;5050492;28;20417;-60
2023/08/30 09:02:17;;;;;;;11.80;8.33;;;13.30;99.90;;;;;;5048679;28;20453;-60
2023/08/30 09:04:43;;;;;;;11.10;8.50;;;13.20;99.90;;;;;;5046106;28;20187;-60
2023/08/30 09:07:09;;;;;;;9.10;7.63;;;13.30;99.90;;;;;;5046653;28;20430;-60
2023/08/30 09:09:35;;;;;;;10.40;7.97;;;13.30;99.90;;;;;;5043472;28;20499;-60
2023/08/30 09:12:00;;;;;;;10.83;8.67;;;13.30;99.90;;;;;;5043666;28;20454;-59
2023/08/30 09:14:26;;;;;;;9.13;7.90;;;13.30;99.90;;;;;;5043316;28;20266;-59
2023/08/30 09:17:00;;;;;;;10.23;8.60;;;13.40;99.90;;;;;;5050894;28;20701;-60
2023/08/30 09:19:26;;;;;;;12.97;8.87;;;13.50;99.90;;;;;;5044917;28;20877;-60
2023/08/30 09:21:55;;;;;;;10.57;8.10;;;13.60;99.90;;;;;;5047316;28;20465;-59
2023/08/30 09:24:21;;;;;;;9.23;7.57;;;13.80;99.90;;;;;;5048629;28;20270;-60
2023/08/30 09:26:49;;;;;;;11.37;8.90;;;13.90;99.90;;;;;;5048177;28;20441;-60
2023/08/30 09:29:17;;;;;;;11.63;7.87;;;14.00;99.90;;;;;;5042271;28;20176;-59
2023/08/30 09:31:43;;;;;;;16.30;8.23;;;14.10;99.90;;;;;;5048058;28;20540;-60
2023/08/30 09:34:10;;;;;;;10.83;7.50;;;14.20;99.90;;;;;;5046454;28;20513;-59
2023/08/30 09:36:38;;;;;;;12.67;7.90;;;14.20;99.90;;;;;;5045742;28;20233;-60
2023/08/30 09:39:14;;;;;;;8.10;7.07;;;14.30;99.90;;;;;;5045279;28;20476;-59
2023/08/30 09:41:44;;;;;;;8.10;6.97;;;14.50;99.90;;;;;;5041840;28;20469;-59
2023/08/30 09:44:13;;;;;;;9.27;7.10;;;14.70;99.90;;;;;;5049377;28;20432;-59
2023/08/30 09:46:50;;;;;;;12.90;7.70;;;14.80;99.90;;;;;;5041255;28;20472;-60
2023/08/30 09:49:20;;;;;;;8.40;7.20;;;15.00;99.90;;;;;;5046052;28;20495;-59
2023/08/30 09:51:47;;;;;;;7.63;6.23;;;15.20;99.90;;;;;;5032659;28;20456;-60
2023/08/30 09:54:20;;;;;;;7.77;6.73;;;15.40;99.90;;;;;;5038573;28;20458;-60
2023/08/30 09:56:47;;;;;;;9.63;6.97;;;15.50;99.90;;;;;;5036567;28;20441;-60
2023/08/30 09:59:14;;;;;;;8.10;6.30;;;15.60;99.90;;;;;;5043290;28;20441;-59
2023/08/30 10:01:41;;;;;;;6.17;5.57;;;15.70;99.90;;;;;;5044695;28;20500;-59
2023/08/30 10:04:08;;;;;;;6.77;5.90;;;15.80;99.90;;;;;;5047642;28;20413;-59
2023/08/30 10:06:35;;;;;;;6.97;5.67;;;15.90;99.90;;;;;;5046716;28;20486;-59
2023/08/30 10:09:03;;;;;;;5.53;4.93;;;16.00;99.90;;;;;;5044449;28;20429;-59
2023/08/30 10:11:32;;;;;;;7.23;4.87;;;16.00;99.90;;;;;;5045968;28;20498;-59
2023/08/30 10:13:59;;;;;;;6.10;5.00;;;16.10;99.90;;;;;;5043768;28;20430;-60
2023/08/30 10:16:27;;;;;;;5.07;4.57;;;16.20;99.90;;;;;;5046386;28;20441;-60
2023/08/30 10:19:01;;;;;;;8.57;4.87;;;16.20;99.90;;;;;;5043192;28;20409;-60
2023/08/30 10:21:29;;;;;;;10.40;4.67;;;16.20;99.90;;;;;;5045420;28;20492;-60
2023/08/30 10:23:56;;;;;;;6.27;4.67;;;16.00;99.90;;;;;;5039443;28;20425;-60
2023/08/30 10:26:25;;;;;;;5.30;4.43;;;16.00;99.90;;;;;;5047817;28;20586;-60
2023/08/30 10:28:53;;;;;;;5.70;4.27;;;16.10;99.90;;;;;;5037949;28;20775;-59
2023/08/30 10:31:19;;;;;;;6.10;4.77;;;16.10;99.90;;;;;;5039329;28;20430;-59
2023/08/30 10:33:53;;;;;;;5.60;4.57;;;16.10;99.90;;;;;;5042969;28;20814;-60
2023/08/30 10:36:26;;;;;;;5.20;4.70;;;16.00;99.90;;;;;;5044184;28;20249;-60
2023/08/30 10:38:53;;;;;;;5.70;4.60;;;16.10;99.90;;;;;;5039215;28;20448;-60
2023/08/30 10:41:26;;;;;;;5.00;4.33;;;16.20;99.90;;;;;;5044047;28;20462;-59
2023/08/30 10:43:57;;;;;;;5.47;4.70;;;16.20;99.90;;;;;;5035434;28;20903;-60
2023/08/30 10:46:34;;;;;;;4.63;4.13;;;16.30;99.90;;;;;;5047665;28;20431;-60
2023/08/30 10:49:15;;;;;;;5.63;5.10;;;16.30;99.90;;;;;;5046965;28;20856;-59
2023/08/30 10:51:41;;;;;;;5.10;4.60;;;16.40;99.90;;;;;;5038921;28;20456;-59
2023/08/30 10:54:17;;;;;;;5.00;4.47;;;16.50;99.90;;;;;;5044119;28;20434;-59
2023/08/30 10:56:56;;;;;;;5.07;4.50;;;16.60;99.90;;;;;;5045294;28;20186;-59
2023/08/30 10:59:24;;;;;;;7.27;5.57;;;16.80;99.90;;;;;;5048005;28;20454;-61
2023/08/30 11:01:51;;;;;;;5.83;5.10;;;16.90;99.90;;;;;;5045917;28;20473;-60
2023/08/30 11:04:18;;;;;;;5.20;4.70;;;17.00;99.90;;;;;;5048261;28;20425;-59
2023/08/30 11:06:47;;;;;;;6.60;4.60;;;17.20;99.90;;;;;;5046213;28;20439;-59
2023/08/30 11:09:21;;;;;;;5.30;4.40;;;17.20;99.90;;;;;;5045776;28;20440;-59
2023/08/30 11:11:47;;;;;;;5.90;4.80;;;17.20;99.90;;;;;;5049351;28;20465;-59
2023/08/30 11:14:14;;;;;;;8.40;5.00;;;17.30;99.90;;;;;;5047889;28;20424;-60
2023/08/30 11:16:40;;;;;;;5.77;5.17;;;17.20;99.90;;;;;;5044955;28;20426;-61
2023/08/30 11:19:07;;;;;;;6.20;4.83;;;17.10;99.90;;;;;;5050907;28;20540;-59
2023/08/30 11:21:38;;;;;;;7.00;4.57;;;17.10;99.90;;;;;;5049333;28;20464;-61
2023/08/30 11:24:05;;;;;;;4.70;3.70;;;17.20;99.90;;;;;;5048932;28;20892;-59
2023/08/30 11:26:31;;;;;;;6.03;4.33;;;17.30;99.90;;;;;;5049392;28;21063;-60
2023/08/30 11:28:56;;;;;;;7.80;4.60;;;17.40;99.90;;;;;;5046220;28;20436;-60
2023/08/30 11:31:26;;;;;;;5.27;4.00;;;17.50;99.90;;;;;;5046368;28;20640;-60
2023/08/30 11:33:59;;;;;;;5.40;4.90;;;17.80;99.90;;;;;;5044751;28;20187;-60
2023/08/30 11:36:30;;;;;;;8.33;4.60;;;17.90;97.70;;;;;;5047200;28;21017;-61
2023/08/30 11:38:56;;;;;;;4.87;4.37;;;18.00;98.30;;;;;;5043755;28;20432;-61
2023/08/30 11:41:23;;;;;;;5.20;4.47;;;18.10;99.90;;;;;;5043947;28;20484;-59
2023/08/30 11:43:49;;;;;;;4.87;4.20;;;18.10;93.80;;;;;;5050922;28;20418;-60
2023/08/30 11:46:16;;;;;;;4.60;3.70;;;18.20;97.30;;;;;;5048834;28;20524;-60
2023/08/30 11:48:42;;;;;;;4.73;4.23;;;18.20;98.10;;;;;;5041341;28;20488;-59
2023/08/30 11:51:08;;;;;;;4.33;3.87;;;18.10;95.20;;;;;;5042644;28;20419;-60
2023/08/30 11:53:35;;;;;;;6.23;4.30;;;18.00;95.60;;;;;;5037769;28;20442;-61
2023/08/30 11:56:01;;;;;;;3.93;3.60;;;17.90;92.70;;;;;;5035019;28;20433;-60
2023/08/30 11:58:27;;;;;;;4.27;3.70;;;17.80;95.20;;;;;;5047049;28;20520;-60
2023/08/30 12:00:54;;;;;;;5.20;4.33;;;17.80;98.50;;;;;;5049448;28;20898;-60
2023/08/30 12:03:22;;;;;;;4.60;4.10;;;17.80;99.90;;;;;;5049033;28;20363;-60
2023/08/30 12:05:49;;;;;;;6.30;3.70;;;17.90;99.90;;;;;;5045562;28;21011;-61
2023/08/30 12:08:33;;;;;;;4.10;3.67;;;18.00;98.80;;;;;;5047016;28;20434;-60
2023/08/30 12:10:58;;;;;;;4.23;3.30;;;18.30;97.10;;;;;;5046160;28;20758;-60
2023/08/30 12:13:28;;;;;;;4.40;3.83;;;18.60;95.30;;;;;;5047626;28;20459;-60
2023/08/30 12:15:55;;;;;;;4.70;3.80;;;18.80;96.30;;;;;;5042944;28;20720;-60
2023/08/30 12:18:27;;;;;;;4.30;3.17;;;18.90;91.90;;;;;;5047208;28;20412;-60
2023/08/30 12:21:03;;;;;;;6.40;4.47;;;19.00;94.00;;;;;;5045698;28;20475;-60
2023/08/30 12:23:32;;;;;;;3.87;3.47;;;19.20;93.20;;;;;;5049105;28;20515;-60
2023/08/30 12:26:05;;;;;;;4.20;3.80;;;19.50;90.60;;;;;;5046090;28;20517;-60
2023/08/30 12:28:32;;;;;;;5.60;3.60;;;19.70;82.90;;;;;;5047685;28;20430;-59
2023/08/30 12:30:58;;;;;;;3.40;3.10;;;19.80;78.10;;;;;;5048009;28;20409;-59
2023/08/30 12:33:25;;;;;;;4.07;3.40;;;19.60;71.60;;;;;;5041497;28;20456;-60